createdAt,value
2022-09-04T00:01:29.028Z,21.24
2022-09-04T00:03:55.369Z,21.20
2022-09-04T00:06:21.768Z,21.15
2022-09-04T00:08:48.060Z,21.09
2022-09-04T00:11:14.391Z,21.04
2022-09-04T00:13:40.810Z,20.98
2022-09-04T00:16:07.150Z,20.93
2022-09-04T00:18:33.479Z,20.88
2022-09-04T00:20:59.804Z,20.85
2022-09-04T00:23:26.269Z,20.80
2022-09-04T00:25:52.622Z,20.75
2022-09-04T00:28:19.658Z,20.69
2022-09-04T00:30:46.066Z,20.65
2022-09-04T00:33:12.463Z,20.62
2022-09-04T00:35:39.352Z,20.58
2022-09-04T00:38:05.976Z,20.57
2022-09-04T00:40:32.344Z,20.52
2022-09-04T00:42:59.287Z,20.46
2022-09-04T00:45:25.582Z,20.41
2022-09-04T00:47:51.944Z,20.35
2022-09-04T00:50:18.433Z,20.30
2022-09-04T00:52:44.684Z,20.26
2022-09-04T00:55:15.147Z,20.22
2022-09-04T00:57:41.412Z,20.19
2022-09-04T01:00:07.693Z,20.14
2022-09-04T01:02:34.052Z,20.10
2022-09-04T01:05:00.407Z,20.06
2022-09-04T01:07:26.906Z,20.01
2022-09-04T01:09:53.267Z,19.97
2022-09-04T01:12:19.633Z,19.91
2022-09-04T01:14:52.977Z,19.87
2022-09-04T01:17:19.615Z,19.83
2022-09-04T01:19:45.893Z,19.80
2022-09-04T01:22:12.154Z,19.75
2022-09-04T01:24:38.409Z,19.72
2022-09-04T01:27:04.770Z,19.69
2022-09-04T01:29:31.896Z,19.66
2022-09-04T01:31:58.735Z,19.63
2022-09-04T01:34:25.020Z,19.58
2022-09-04T01:36:51.620Z,19.56
2022-09-04T01:39:19.676Z,19.53
2022-09-04T01:41:46.189Z,19.48
2022-09-04T01:44:12.745Z,19.47
2022-09-04T01:46:39.152Z,19.45
2022-09-04T01:49:05.535Z,19.43
2022-09-04T01:51:32.316Z,19.39
2022-09-04T01:53:58.567Z,19.38
2022-09-04T01:56:25.225Z,19.36
2022-09-04T01:58:51.503Z,19.33
2022-09-04T02:01:21.123Z,19.30
2022-09-04T02:03:47.981Z,19.28
2022-09-04T02:06:14.343Z,19.24
2022-09-04T02:08:40.640Z,19.22
2022-09-04T02:11:06.997Z,19.18
2022-09-04T02:13:33.240Z,19.15
2022-09-04T02:15:59.526Z,19.11
2022-09-04T02:18:25.909Z,19.09
2022-09-04T02:20:52.244Z,19.08
2022-09-04T02:23:18.471Z,19.06
2022-09-04T02:25:45.305Z,19.04
2022-09-04T02:28:11.607Z,19.03
2022-09-04T02:30:38.685Z,19.01
2022-09-04T02:33:05.922Z,18.97
2022-09-04T02:35:33.675Z,18.94
2022-09-04T02:38:02.980Z,18.92
2022-09-04T02:40:29.342Z,18.89
2022-09-04T02:42:55.613Z,18.86
2022-09-04T02:45:22.502Z,18.82
2022-09-04T02:47:49.488Z,18.80
2022-09-04T02:50:15.788Z,18.77
2022-09-04T02:52:42.045Z,18.74
2022-09-04T02:55:08.628Z,18.72
2022-09-04T02:57:35.160Z,18.70
2022-09-04T03:00:01.438Z,18.68
2022-09-04T03:02:27.726Z,18.66
2022-09-04T03:04:57.248Z,18.64
2022-09-04T03:07:23.560Z,18.64
2022-09-04T03:09:49.857Z,18.62
2022-09-04T03:12:16.288Z,18.60
2022-09-04T03:14:42.655Z,18.60
2022-09-04T03:17:08.983Z,18.59
2022-09-04T03:19:35.396Z,18.61
2022-09-04T03:22:01.752Z,18.60
2022-09-04T03:24:28.015Z,18.60
2022-09-04T03:26:54.251Z,18.57
2022-09-04T03:29:20.788Z,18.56
2022-09-04T03:31:47.333Z,18.54
2022-09-04T03:34:13.711Z,18.52
2022-09-04T03:36:40.147Z,18.51
2022-09-04T03:39:06.479Z,18.48
2022-09-04T03:41:33.199Z,18.46
2022-09-04T03:43:59.576Z,18.43
2022-09-04T03:46:25.893Z,18.40
2022-09-04T03:48:52.210Z,18.37
2022-09-04T03:51:18.725Z,18.34
2022-09-04T03:53:49.167Z,18.30
2022-09-04T03:56:15.532Z,18.26
2022-09-04T03:58:41.969Z,18.23
2022-09-04T04:01:08.254Z,18.22
2022-09-04T04:03:34.563Z,18.20
2022-09-04T04:06:00.828Z,18.18
2022-09-04T04:08:27.375Z,18.15
2022-09-04T04:10:53.639Z,18.14
2022-09-04T04:13:20.089Z,18.11
2022-09-04T04:15:46.414Z,18.06
2022-09-04T04:18:12.711Z,18.02
2022-09-04T04:20:38.973Z,17.99
2022-09-04T04:23:05.296Z,18.00
2022-09-04T04:25:39.150Z,17.99
2022-09-04T04:28:05.819Z,17.98
2022-09-04T04:30:33.219Z,17.95
2022-09-04T04:32:59.529Z,17.92
2022-09-04T04:35:25.811Z,17.91
2022-09-04T04:37:52.162Z,17.88
2022-09-04T04:40:18.443Z,17.86
2022-09-04T04:42:44.752Z,17.85
2022-09-04T04:45:11.578Z,17.83
2022-09-04T04:47:37.869Z,17.82
2022-09-04T04:50:04.421Z,17.81
2022-09-04T04:52:30.676Z,17.79
2022-09-04T04:54:58.184Z,17.77
2022-09-04T04:57:24.453Z,17.79
2022-09-04T04:59:50.776Z,17.87
2022-09-04T05:02:17.157Z,17.94
2022-09-04T05:04:46.585Z,17.98
2022-09-04T05:07:13.914Z,18.00
2022-09-04T05:09:40.158Z,17.90
2022-09-04T05:12:06.539Z,17.84
2022-09-04T05:14:33.683Z,17.83
2022-09-04T05:17:00.034Z,17.82
2022-09-04T05:19:26.849Z,17.84
2022-09-04T05:21:53.115Z,17.83
2022-09-04T05:24:19.479Z,17.84
2022-09-04T05:26:47.268Z,17.83
2022-09-04T05:29:13.766Z,17.84
2022-09-04T05:31:40.476Z,17.84
2022-09-04T05:34:06.800Z,17.85
2022-09-04T05:36:33.112Z,17.85
2022-09-04T05:38:59.469Z,17.85
2022-09-04T05:41:25.783Z,17.85
2022-09-04T05:43:52.658Z,17.86
2022-09-04T05:46:19.384Z,17.87
2022-09-04T05:48:45.905Z,17.89
2022-09-04T05:51:12.159Z,17.91
2022-09-04T05:53:38.414Z,17.92
2022-09-04T05:56:04.813Z,17.94
2022-09-04T05:58:31.084Z,17.97
2022-09-04T06:00:57.551Z,18.01
2022-09-04T06:03:23.978Z,18.04
2022-09-04T06:05:50.478Z,18.08
2022-09-04T06:08:16.763Z,18.12
2022-09-04T06:10:43.077Z,18.16
2022-09-04T06:13:10.204Z,18.20
2022-09-04T06:15:37.159Z,18.24
2022-09-04T06:18:04.242Z,18.29
2022-09-04T06:20:30.620Z,18.36
2022-09-04T06:22:59.206Z,18.42
2022-09-04T06:25:27.544Z,18.49
2022-09-04T06:27:56.134Z,18.57
2022-09-04T06:30:22.420Z,18.72
2022-09-04T06:32:49.306Z,19.06
2022-09-04T06:35:16.526Z,19.30
2022-09-04T06:37:42.833Z,19.46
2022-09-04T06:40:09.132Z,19.35
2022-09-04T06:42:35.580Z,19.64
2022-09-04T06:45:03.094Z,19.78
2022-09-04T06:47:30.029Z,19.73
2022-09-04T06:49:56.282Z,19.87
2022-09-04T06:52:22.866Z,19.94
2022-09-04T06:54:49.130Z,20.07
2022-09-04T06:57:15.784Z,20.24
2022-09-04T06:59:42.334Z,20.49
2022-09-04T07:02:08.762Z,20.54
2022-09-04T07:04:35.135Z,20.77
2022-09-04T07:07:02.107Z,20.78
2022-09-04T07:09:28.419Z,21.02
2022-09-04T07:11:54.770Z,21.09
2022-09-04T07:14:21.052Z,21.16
2022-09-04T07:16:47.869Z,21.54
2022-09-04T07:19:16.628Z,21.74
2022-09-04T07:21:42.857Z,22.05
2022-09-04T07:24:09.148Z,22.20
2022-09-04T07:26:35.428Z,22.46
2022-09-04T07:29:01.764Z,22.63
2022-09-04T07:31:28.078Z,22.83
2022-09-04T07:33:54.788Z,23.00
2022-09-04T07:36:21.056Z,23.19
2022-09-04T07:38:50.894Z,23.35
2022-09-04T07:41:18.932Z,23.51
2022-09-04T07:43:45.850Z,23.71
2022-09-04T07:46:12.144Z,23.91
2022-09-04T07:48:38.454Z,24.12
2022-09-04T07:51:05.173Z,24.30
2022-09-04T07:53:31.458Z,24.50
2022-09-04T07:55:57.981Z,24.72
2022-09-04T07:58:24.260Z,24.91
2022-09-04T08:00:50.568Z,25.15
2022-09-04T08:03:16.853Z,25.35
2022-09-04T08:05:43.151Z,25.60
2022-09-04T08:08:09.611Z,25.84
2022-09-04T08:10:35.953Z,26.10
2022-09-04T08:13:04.777Z,26.39
2022-09-04T08:15:31.121Z,26.66
2022-09-04T08:18:01.773Z,26.92
2022-09-04T08:20:28.972Z,27.17
2022-09-04T08:22:55.359Z,27.40
2022-09-04T08:25:22.103Z,27.57
2022-09-04T08:27:48.405Z,27.74
2022-09-04T08:30:14.762Z,27.94
2022-09-04T08:32:41.130Z,28.15
2022-09-04T08:35:07.448Z,28.35
2022-09-04T08:37:34.028Z,28.55
2022-09-04T08:40:00.407Z,28.70
2022-09-04T08:42:26.786Z,28.79
2022-09-04T08:44:53.094Z,28.89
2022-09-04T08:47:19.404Z,28.92
2022-09-04T08:49:45.705Z,28.91
2022-09-04T08:52:12.164Z,28.92
2022-09-04T08:54:38.725Z,28.91
2022-09-04T08:57:05.069Z,28.85
2022-09-04T08:59:31.415Z,28.71
2022-09-04T09:01:57.795Z,28.63
2022-09-04T09:04:24.157Z,28.56
2022-09-04T09:06:50.427Z,28.45
2022-09-04T09:09:16.713Z,28.24
2022-09-04T09:11:43.318Z,28.05
2022-09-04T09:14:10.064Z,27.85
2022-09-04T09:16:36.391Z,27.37
2022-09-04T09:19:03.010Z,27.05
2022-09-04T09:21:29.541Z,26.92
2022-09-04T09:23:56.846Z,26.86
2022-09-04T09:26:23.485Z,26.84
2022-09-04T09:28:50.198Z,26.82
2022-09-04T09:31:16.500Z,26.74
2022-09-04T09:33:45.199Z,26.71
2022-09-04T09:36:11.993Z,26.73
2022-09-04T09:38:40.787Z,26.65
2022-09-04T09:41:07.196Z,26.66
2022-09-04T09:43:33.473Z,26.70
2022-09-04T09:45:59.841Z,26.74
2022-09-04T09:48:26.685Z,26.75
2022-09-04T09:50:53.047Z,26.75
2022-09-04T09:53:19.418Z,26.75
2022-09-04T09:55:45.768Z,26.69
2022-09-04T09:58:12.355Z,26.72
2022-09-04T10:00:38.887Z,26.73
2022-09-04T10:03:05.343Z,26.74
2022-09-04T10:05:31.772Z,26.76
2022-09-04T10:07:58.100Z,26.74
2022-09-04T10:10:25.109Z,26.71
2022-09-04T10:12:51.528Z,26.75
2022-09-04T10:15:18.079Z,26.79
2022-09-04T10:17:44.485Z,26.81
2022-09-04T10:20:10.974Z,26.82
2022-09-04T10:22:37.293Z,26.84
2022-09-04T10:25:03.871Z,26.86
2022-09-04T10:27:30.419Z,26.84
2022-09-04T10:29:57.050Z,26.80
2022-09-04T10:32:23.339Z,26.78
2022-09-04T10:34:49.835Z,26.81
2022-09-04T10:37:16.279Z,26.78
2022-09-04T10:39:43.261Z,26.76
2022-09-04T10:42:09.722Z,26.80
2022-09-04T10:44:36.042Z,26.78
2022-09-04T10:47:02.485Z,26.76
2022-09-04T10:49:28.967Z,26.76
2022-09-04T10:51:55.297Z,26.75
2022-09-04T10:54:21.637Z,26.81
2022-09-04T10:56:48.496Z,26.84
2022-09-04T10:59:15.067Z,26.87
2022-09-04T11:01:41.366Z,26.84
2022-09-04T11:04:08.009Z,26.81
2022-09-04T11:06:34.297Z,26.80
2022-09-04T11:09:00.636Z,26.82
2022-09-04T11:11:27.167Z,26.82
2022-09-04T11:13:53.973Z,26.76
2022-09-04T11:16:20.401Z,26.74
2022-09-04T11:18:46.736Z,26.80
2022-09-04T11:21:13.005Z,26.75
2022-09-04T11:23:39.350Z,26.76
2022-09-04T11:26:06.222Z,26.76
2022-09-04T11:28:32.517Z,26.76
2022-09-04T11:30:59.283Z,26.72
2022-09-04T11:33:25.870Z,26.69
2022-09-04T11:35:52.285Z,26.65
2022-09-04T11:38:18.644Z,26.63
2022-09-04T11:40:45.312Z,26.64
2022-09-04T11:43:11.570Z,26.64
2022-09-04T11:45:38.081Z,26.66
2022-09-04T11:48:04.395Z,26.74
2022-09-04T11:50:30.756Z,26.74
2022-09-04T11:52:57.157Z,26.78
2022-09-04T11:55:24.077Z,26.75
2022-09-04T11:57:50.415Z,26.76
2022-09-04T12:00:17.029Z,26.81
2022-09-04T12:02:43.523Z,26.86
2022-09-04T12:05:09.825Z,26.89
2022-09-04T12:07:43.122Z,26.94
2022-09-04T12:10:09.924Z,26.99
2022-09-04T12:12:36.413Z,26.91
2022-09-04T12:15:07.558Z,26.88
2022-09-04T12:17:35.137Z,26.95
2022-09-04T12:20:03.380Z,26.98
2022-09-04T12:22:32.457Z,27.00
2022-09-04T12:24:58.773Z,26.97
2022-09-04T12:27:25.146Z,26.90
2022-09-04T12:29:51.607Z,26.86
2022-09-04T12:32:18.805Z,26.85
2022-09-04T12:34:45.314Z,26.82
2022-09-04T12:37:14.083Z,26.80
2022-09-04T12:39:40.409Z,26.80
2022-09-04T12:42:06.718Z,26.84
2022-09-04T12:44:33.071Z,26.88
2022-09-04T12:46:59.603Z,26.84
2022-09-04T12:49:25.894Z,26.82
2022-09-04T12:51:52.542Z,26.80
2022-09-04T12:54:18.855Z,26.80
2022-09-04T12:56:45.276Z,26.79
2022-09-04T12:59:16.165Z,26.78
2022-09-04T13:01:46.050Z,26.78
2022-09-04T13:04:12.484Z,26.83
2022-09-04T13:06:38.895Z,26.87
2022-09-04T13:09:05.426Z,26.85
2022-09-04T13:11:31.680Z,26.84
2022-09-04T13:13:58.031Z,26.85
2022-09-04T13:16:24.509Z,26.85
2022-09-04T13:18:52.724Z,26.85
2022-09-04T13:21:19.252Z,26.85
2022-09-04T13:23:46.515Z,26.84
2022-09-04T13:26:13.124Z,26.83
2022-09-04T13:28:43.001Z,26.81
2022-09-04T13:31:09.471Z,26.80
2022-09-04T13:33:36.140Z,26.78
2022-09-04T13:36:02.459Z,26.76
2022-09-04T13:38:29.140Z,26.75
2022-09-04T13:40:55.595Z,26.73
2022-09-04T13:43:22.295Z,26.73
2022-09-04T13:45:48.975Z,26.73
2022-09-04T13:48:15.281Z,26.73
2022-09-04T13:50:41.609Z,26.75
2022-09-04T13:53:07.993Z,26.75
2022-09-04T13:55:34.348Z,26.76
2022-09-04T13:58:00.599Z,26.75
2022-09-04T14:00:28.459Z,26.75
2022-09-04T14:02:55.093Z,26.76
2022-09-04T14:05:22.782Z,26.75
2022-09-04T14:07:49.268Z,26.74
2022-09-04T14:10:15.697Z,26.74
2022-09-04T14:12:42.736Z,26.75
2022-09-04T14:15:20.376Z,26.76
2022-09-04T14:17:47.083Z,26.75
2022-09-04T14:20:13.337Z,26.75
2022-09-04T14:22:39.770Z,26.74
2022-09-04T14:25:11.645Z,26.73
2022-09-04T14:27:52.956Z,26.75
2022-09-04T14:30:19.613Z,26.74
2022-09-04T14:32:45.963Z,26.75
2022-09-04T14:35:15.552Z,26.76
2022-09-04T14:37:42.121Z,26.76
2022-09-04T14:40:08.609Z,26.75
2022-09-04T14:42:35.094Z,26.75
2022-09-04T14:45:01.451Z,26.76
2022-09-04T14:47:28.575Z,26.78
2022-09-04T14:49:54.864Z,26.81
2022-09-04T14:52:21.371Z,26.79
2022-09-04T14:54:47.756Z,26.79
2022-09-04T14:57:14.415Z,26.80
2022-09-04T14:59:40.715Z,26.78
2022-09-04T15:02:07.726Z,26.78
2022-09-04T15:04:36.026Z,26.78
2022-09-04T15:07:11.223Z,26.77
2022-09-04T15:09:38.255Z,26.77
2022-09-04T15:12:23.765Z,26.77
2022-09-04T15:14:52.085Z,26.78
2022-09-04T15:17:18.741Z,26.77
2022-09-04T15:19:45.157Z,26.77
2022-09-04T15:22:12.216Z,26.76
2022-09-04T15:24:38.567Z,26.77
2022-09-04T15:27:04.902Z,26.75
2022-09-04T15:29:31.199Z,26.74
2022-09-04T15:31:57.694Z,26.74
2022-09-04T15:34:24.015Z,26.73
2022-09-04T15:36:50.394Z,26.72
2022-09-04T15:39:18.569Z,26.73
2022-09-04T15:41:45.073Z,26.72
2022-09-04T15:44:11.502Z,26.72
2022-09-04T15:46:37.831Z,26.71
2022-09-04T15:49:04.144Z,26.69
2022-09-04T15:51:31.049Z,26.69
2022-09-04T15:53:57.340Z,26.69
2022-09-04T15:56:23.725Z,26.69
2022-09-04T15:58:50.050Z,26.70
2022-09-04T16:01:17.098Z,26.67
2022-09-04T16:03:43.639Z,26.68
2022-09-04T16:06:09.969Z,26.67
2022-09-04T16:08:36.317Z,26.66
2022-09-04T16:11:02.575Z,26.66
2022-09-04T16:13:29.226Z,26.64
2022-09-04T16:15:56.153Z,26.61
2022-09-04T16:18:23.092Z,26.57
2022-09-04T16:20:49.505Z,26.58
2022-09-04T16:23:16.373Z,26.56
2022-09-04T16:25:43.200Z,26.55
2022-09-04T16:28:09.630Z,26.52
2022-09-04T16:30:36.304Z,26.51
2022-09-04T16:33:02.933Z,26.49
2022-09-04T16:35:29.766Z,26.48
2022-09-04T16:37:59.644Z,26.46
2022-09-04T16:40:25.908Z,26.44
2022-09-04T16:42:52.240Z,26.43
2022-09-04T16:45:21.269Z,26.41
2022-09-04T16:47:47.629Z,26.40
2022-09-04T16:50:13.926Z,26.37
2022-09-04T16:52:40.329Z,26.36
2022-09-04T16:55:06.626Z,26.35
2022-09-04T16:57:32.900Z,26.32
2022-09-04T16:59:59.570Z,26.31
2022-09-04T17:02:32.260Z,26.30
2022-09-04T17:05:02.821Z,26.27
2022-09-04T17:07:29.135Z,26.24
2022-09-04T17:09:55.969Z,26.24
2022-09-04T17:12:22.226Z,26.20
2022-09-04T17:14:48.490Z,26.19
2022-09-04T17:17:30.130Z,26.17
2022-09-04T17:19:57.224Z,26.14
2022-09-04T17:28:54.005Z,26.10
2022-09-04T17:29:00.869Z,26.08
2022-09-04T17:29:17.548Z,26.05
2022-09-04T17:30:43.773Z,26.01
2022-09-04T17:36:39.029Z,25.98
2022-09-04T17:40:34.727Z,25.94
2022-09-04T17:40:39.970Z,25.91
2022-09-04T17:41:38.337Z,25.88
2022-09-04T17:44:15.912Z,25.84
2022-09-04T17:46:42.582Z,25.81
2022-09-04T17:49:08.838Z,25.78
2022-09-04T17:51:35.172Z,25.76
2022-09-04T17:54:01.530Z,25.73
2022-09-04T17:56:28.171Z,25.69
2022-09-04T17:58:54.511Z,25.67
2022-09-04T18:01:20.872Z,25.65
2022-09-04T18:04:02.806Z,25.61
2022-09-04T18:06:33.486Z,25.58
2022-09-04T18:08:59.816Z,25.55
2022-09-04T18:11:26.081Z,25.53
2022-09-04T18:13:53.135Z,25.50
2022-09-04T18:16:19.528Z,25.48
2022-09-04T18:18:46.087Z,25.44
2022-09-04T18:21:12.556Z,25.41
2022-09-04T18:23:51.453Z,25.38
2022-09-04T18:26:18.357Z,25.35
2022-09-04T18:28:49.936Z,25.32
2022-09-04T18:37:12.659Z,25.28
2022-09-04T18:37:21.675Z,25.20
2022-09-04T18:37:26.902Z,25.24
2022-09-04T18:39:36.575Z,25.18
2022-09-04T18:47:17.388Z,25.13
2022-09-04T18:50:44.273Z,25.06
2022-09-04T18:50:50.077Z,25.10
2022-09-04T18:51:05.777Z,25.03
2022-09-04T18:53:08.821Z,24.98
2022-09-04T18:55:36.937Z,24.94
2022-09-04T18:58:03.857Z,24.91
2022-09-04T19:00:30.121Z,24.88
2022-09-04T19:02:56.426Z,24.86
2022-09-04T19:05:24.122Z,24.85
2022-09-04T19:07:50.988Z,24.82
2022-09-04T19:10:17.318Z,24.80
2022-09-04T19:12:47.484Z,24.78
2022-09-04T19:15:14.226Z,24.75
2022-09-04T19:17:41.003Z,24.73
2022-09-04T19:20:08.600Z,24.70
2022-09-04T19:22:35.116Z,24.67
2022-09-04T19:25:02.201Z,24.66
2022-09-04T19:27:28.551Z,24.64
2022-09-04T19:29:55.536Z,24.61
2022-09-04T19:32:30.204Z,24.59
2022-09-04T19:34:56.454Z,24.57
2022-09-04T19:40:51.826Z,24.53
2022-09-04T19:46:04.310Z,24.51
2022-09-04T19:46:06.659Z,24.48
2022-09-04T19:46:16.441Z,24.45
2022-09-04T19:48:27.887Z,24.41
2022-09-04T19:53:22.478Z,24.40
2022-09-04T19:53:48.460Z,24.38
2022-09-04T19:56:15.878Z,24.35
2022-09-04T19:58:44.047Z,24.33
2022-09-04T20:01:10.796Z,24.28
2022-09-04T20:03:37.648Z,24.25
2022-09-04T20:06:21.126Z,24.22
2022-09-04T20:08:48.290Z,24.19
2022-09-04T20:11:34.927Z,24.16
2022-09-04T20:14:02.417Z,24.14
2022-09-04T20:16:40.475Z,24.12
2022-09-04T20:19:14.897Z,24.10
2022-09-04T20:21:46.557Z,24.09
2022-09-04T20:24:13.211Z,24.08
2022-09-04T20:26:39.570Z,24.05
2022-09-04T20:29:06.009Z,24.04
2022-09-04T20:31:36.054Z,24.02
2022-09-04T20:34:04.580Z,24.00
2022-09-04T20:36:36.174Z,24.00
2022-09-04T20:39:02.649Z,23.99
2022-09-04T20:41:29.284Z,23.99
2022-09-04T20:43:55.552Z,23.98
2022-09-04T20:52:45.488Z,23.97
2022-09-04T20:52:51.138Z,23.96
2022-09-04T20:52:54.405Z,23.94
2022-09-04T20:54:40.903Z,23.95
2022-09-04T20:59:08.940Z,23.93
2022-09-04T21:03:21.626Z,23.92
2022-09-04T21:03:22.528Z,23.91
2022-09-04T21:05:26.297Z,23.90
2022-09-04T21:07:52.661Z,23.89
2022-09-04T21:10:18.939Z,23.87
2022-09-04T21:12:45.254Z,23.87
2022-09-04T21:15:11.526Z,23.86
2022-09-04T21:17:38.180Z,23.85
2022-09-04T21:20:04.561Z,23.84
2022-09-04T21:22:33.027Z,23.83
2022-09-04T21:25:00.144Z,23.82
2022-09-04T21:27:26.448Z,23.81
2022-09-04T21:29:53.015Z,23.79
2022-09-04T21:32:19.473Z,23.79
2022-09-04T21:34:46.234Z,23.76
2022-09-04T21:37:12.490Z,23.75
2022-09-04T21:39:39.087Z,23.74
2022-09-04T21:42:16.539Z,23.72
2022-09-04T21:44:44.472Z,23.72
2022-09-04T21:47:16.971Z,23.69
2022-09-04T21:49:43.307Z,23.68
2022-09-04T21:52:10.162Z,23.67
2022-09-04T21:55:35.905Z,23.67
2022-09-04T22:02:28.647Z,23.64
2022-09-04T22:02:30.636Z,23.65
2022-09-04T22:03:01.433Z,23.64
2022-09-04T22:05:28.904Z,23.62
2022-09-04T22:10:52.863Z,23.61
2022-09-04T22:13:33.385Z,23.60
2022-09-04T22:13:47.839Z,23.59
2022-09-04T22:16:14.465Z,23.58
2022-09-04T22:18:41.222Z,23.57
2022-09-04T22:21:07.505Z,23.56
2022-09-04T22:23:34.059Z,23.55
2022-09-04T22:26:16.217Z,23.54
2022-09-04T22:28:46.681Z,23.52
2022-09-04T22:31:13.944Z,23.49
2022-09-04T22:33:48.418Z,23.46
2022-09-04T22:36:26.489Z,23.45
2022-09-04T22:38:52.781Z,23.42
2022-09-04T22:41:19.279Z,23.40
2022-09-04T22:43:46.904Z,23.37
2022-09-04T22:46:13.702Z,23.35
2022-09-04T22:48:40.193Z,23.31
2022-09-04T22:51:06.518Z,23.29
2022-09-04T22:53:32.805Z,23.27
2022-09-04T22:56:23.310Z,23.25
2022-09-04T22:58:45.381Z,23.21
2022-09-04T23:01:12.198Z,23.20
2022-09-04T23:03:38.576Z,23.18
2022-09-04T23:08:07.094Z,23.14
2022-09-04T23:13:47.650Z,23.11
2022-09-04T23:13:49.608Z,23.10
2022-09-04T23:14:24.168Z,23.07
2022-09-04T23:16:50.589Z,23.04
2022-09-04T23:26:32.481Z,23.02
2022-09-04T23:26:37.473Z,23.01
2022-09-04T23:26:58.143Z,22.98
2022-09-04T23:27:36.500Z,22.92
2022-09-04T23:30:03.043Z,22.95
2022-09-04T23:32:29.419Z,22.91
2022-09-04T23:35:13.656Z,22.89
2022-09-04T23:37:41.517Z,22.87
2022-09-04T23:40:10.875Z,22.84
2022-09-04T23:42:37.194Z,22.83
2022-09-04T23:45:03.538Z,22.80
2022-09-04T23:47:47.765Z,22.79
2022-09-04T23:50:15.433Z,22.77
2022-09-04T23:52:48.921Z,22.75
2022-09-04T23:55:15.674Z,22.72
2022-09-04T23:57:42.351Z,22.70
